Time;durP1;ratioP1;P1;durP2;ratioP2;P2;SDS_P1;SDS_P2;PMS_P1;PMS_P2;Temp;Humidity;BMP_temperature;BMP_pressure;BME280_temperature;BME280_humidity;BME280_pressure;Samples;Min_cycle;Max_cycle;Signal;HPM_P1;HPM_P2
2023/11/05 00:01:05;;;;;;;12.63;10.20;;;10.90;66.70;;;;;;5062388;28;20162;-76
2023/11/05 00:03:31;;;;;;;12.85;10.27;;;10.90;66.70;;;;;;5063411;28;20106;-75
2023/11/05 00:05:57;;;;;;;11.38;9.13;;;10.90;66.80;;;;;;5060614;28;20058;-76
2023/11/05 00:08:23;;;;;;;15.57;10.70;;;10.90;66.80;;;;;;5069919;28;20032;-76
2023/11/05 00:10:49;;;;;;;13.70;11.45;;;10.90;66.80;;;;;;5064867;28;20077;-76
2023/11/05 00:13:15;;;;;;;12.18;10.25;;;10.90;66.90;;;;;;5069591;28;20384;-76
2023/11/05 00:15:41;;;;;;;11.90;10.13;;;10.90;66.90;;;;;;5066672;28;21043;-76
2023/11/05 00:18:07;;;;;;;14.55;11.27;;;10.90;67.00;;;;;;5057978;28;20162;-76
2023/11/05 00:20:33;;;;;;;14.60;11.20;;;10.90;67.00;;;;;;5066117;28;20151;-75
2023/11/05 00:22:59;;;;;;;11.23;10.05;;;10.90;67.00;;;;;;5058977;28;20067;-75
2023/11/05 00:25:26;;;;;;;13.07;11.02;;;10.90;67.10;;;;;;5060779;28;20043;-75
2023/11/05 00:27:52;;;;;;;15.63;11.57;;;10.90;67.10;;;;;;5063227;28;20069;-76
2023/11/05 00:30:18;;;;;;;16.23;12.60;;;10.90;67.20;;;;;;5063876;28;20364;-75
2023/11/05 00:32:44;;;;;;;15.45;11.13;;;10.90;67.40;;;;;;5044358;28;20085;-76
2023/11/05 00:35:11;;;;;;;17.25;12.40;;;10.90;67.30;;;;;;5060132;28;20450;-75
2023/11/05 00:37:37;;;;;;;12.35;10.55;;;10.90;67.40;;;;;;5043401;28;20107;-75
2023/11/05 00:40:04;;;;;;;15.73;12.23;;;10.90;67.40;;;;;;5048165;28;20052;-75
2023/11/05 00:42:30;;;;;;;15.65;11.13;;;10.90;67.40;;;;;;5052669;28;20064;-75
2023/11/05 00:44:57;;;;;;;16.85;12.77;;;10.90;67.50;;;;;;5065483;28;20055;-75
2023/11/05 00:47:23;;;;;;;15.50;11.90;;;11.00;67.70;;;;;;5057643;28;20645;-76
2023/11/05 00:49:49;;;;;;;15.30;11.05;;;11.00;67.70;;;;;;5061869;28;20044;-76
2023/11/05 00:52:15;;;;;;;16.73;11.23;;;11.00;67.80;;;;;;5091532;27;20036;-75
2023/11/05 00:54:41;;;;;;;13.57;10.77;;;11.00;67.80;;;;;;5068757;28;20083;-75
2023/11/05 00:57:07;;;;;;;15.05;10.68;;;11.00;67.90;;;;;;5064675;28;20059;-75
2023/11/05 00:59:33;;;;;;;15.40;10.40;;;11.00;67.90;;;;;;5061381;28;20074;-76
2023/11/05 01:01:59;;;;;;;11.60;9.82;;;11.00;67.90;;;;;;5062214;28;20040;-75
2023/11/05 01:04:25;;;;;;;11.00;9.63;;;11.10;68.20;;;;;;5062591;28;20298;-75
2023/11/05 01:06:51;;;;;;;10.98;8.77;;;11.10;68.20;;;;;;5065401;28;20142;-76
2023/11/05 01:09:17;;;;;;;11.75;9.30;;;11.10;68.30;;;;;;5064470;28;20040;-76
2023/11/05 01:11:43;;;;;;;11.60;8.93;;;11.10;68.30;;;;;;5060739;28;20430;-76
2023/11/05 01:14:09;;;;;;;10.93;9.48;;;11.10;68.30;;;;;;5061068;28;20306;-75
2023/11/05 01:16:35;;;;;;;9.00;8.10;;;11.10;68.40;;;;;;5065951;28;20071;-76
2023/11/05 01:19:02;;;;;;;10.30;8.32;;;11.20;68.60;;;;;;5063243;28;20196;-76
2023/11/05 01:21:28;;;;;;;9.32;8.30;;;11.20;68.60;;;;;;5066539;28;20036;-75
2023/11/05 01:23:54;;;;;;;8.38;7.20;;;11.20;68.70;;;;;;5067876;28;20042;-76
2023/11/05 01:26:20;;;;;;;6.88;6.18;;;11.20;68.70;;;;;;5058227;28;20047;-75
2023/11/05 01:28:46;;;;;;;8.48;7.10;;;11.20;68.80;;;;;;5048400;28;20515;-76
2023/11/05 01:31:11;;;;;;;7.68;6.50;;;11.20;68.80;;;;;;5053361;28;20025;-76
2023/11/05 01:33:37;;;;;;;7.32;6.63;;;11.30;69.00;;;;;;5051968;28;20028;-75
2023/11/05 01:36:03;;;;;;;7.53;6.70;;;11.20;68.80;;;;;;5092837;28;20423;-76
2023/11/05 01:38:30;;;;;;;6.97;6.38;;;11.30;69.10;;;;;;5062042;28;20115;-76
2023/11/05 01:40:56;;;;;;;6.80;6.22;;;11.30;69.10;;;;;;5055095;28;20128;-76
2023/11/05 01:43:22;;;;;;;6.57;5.93;;;11.30;69.10;;;;;;5087634;28;20029;-76
2023/11/05 01:45:48;;;;;;;6.07;5.55;;;11.30;69.10;;;;;;5058292;28;20510;-76
2023/11/05 01:48:14;;;;;;;6.30;5.78;;;11.30;69.20;;;;;;5059909;28;20028;-76
2023/11/05 01:50:41;;;;;;;6.50;5.90;;;11.30;69.20;;;;;;5059896;28;20028;-76
2023/11/05 01:53:08;;;;;;;6.75;5.40;;;11.30;69.20;;;;;;5058775;28;20037;-76
2023/11/05 01:55:36;;;;;;;7.90;6.40;;;11.30;69.20;;;;;;5057522;28;20136;-76
2023/11/05 01:58:03;;;;;;;5.78;5.13;;;11.30;69.20;;;;;;5043670;28;20312;-77
2023/11/05 02:00:30;;;;;;;5.85;5.22;;;11.30;69.20;;;;;;5057767;28;20438;-76
2023/11/05 02:02:57;;;;;;;6.20;5.60;;;11.40;69.40;;;;;;5063650;28;20397;-76
2023/11/05 02:05:24;;;;;;;6.55;5.95;;;11.30;69.20;;;;;;5063435;28;20063;-76
2023/11/05 02:07:50;;;;;;;6.47;5.88;;;11.30;69.30;;;;;;5067096;28;20108;-76
2023/11/05 02:10:16;;;;;;;7.85;7.15;;;11.40;69.50;;;;;;5062263;28;20079;-76
2023/11/05 02:12:59;;;;;;;6.93;6.32;;;11.40;69.50;;;;;;5058128;28;20063;-76
2023/11/05 02:15:27;;;;;;;7.03;6.32;;;11.30;69.40;;;;;;5079428;28;20773;-76
2023/11/05 02:17:54;;;;;;;7.22;6.53;;;11.40;69.50;;;;;;5067443;28;20476;-76
2023/11/05 02:20:21;;;;;;;6.70;6.10;;;11.40;69.50;;;;;;5060127;28;20032;-76
2023/11/05 02:22:48;;;;;;;6.72;6.13;;;11.40;69.60;;;;;;5057010;28;20474;-75
2023/11/05 02:25:18;;;;;;;7.55;6.85;;;11.30;69.40;;;;;;5058058;28;20037;-75
2023/11/05 02:27:48;;;;;;;7.45;6.75;;;11.40;69.60;;;;;;5060436;28;20062;-76
2023/11/05 02:30:18;;;;;;;7.57;6.80;;;11.40;69.60;;;;;;5065720;28;20570;-75
2023/11/05 02:32:46;;;;;;;7.30;6.60;;;11.40;69.60;;;;;;5074152;28;20551;-75
2023/11/05 02:35:12;;;;;;;7.57;6.88;;;11.40;69.60;;;;;;5063540;28;20043;-75
2023/11/05 02:37:38;;;;;;;7.85;7.15;;;11.40;70.10;;;;;;5061704;28;20124;-75
2023/11/05 02:40:07;;;;;;;7.55;6.85;;;11.40;69.60;;;;;;5060022;28;20173;-76
2023/11/05 02:42:33;;;;;;;7.53;6.82;;;11.40;69.60;;;;;;5053903;28;20040;-75
2023/11/05 02:45:04;;;;;;;7.63;6.93;;;11.50;69.80;;;;;;5085739;28;20024;-75
2023/11/05 02:47:30;;;;;;;7.88;7.07;;;11.40;69.60;;;;;;5058443;28;20585;-75
2023/11/05 02:49:56;;;;;;;7.53;6.82;;;11.40;69.60;;;;;;5057379;28;20543;-75
2023/11/05 02:52:22;;;;;;;6.57;5.88;;;11.40;69.60;;;;;;5042787;28;20056;-75
2023/11/05 02:54:49;;;;;;;6.35;5.82;;;11.50;69.80;;;;;;5058639;28;20064;-75
2023/11/05 02:57:20;;;;;;;6.78;6.05;;;11.40;69.60;;;;;;5056654;28;20029;-75
2023/11/05 02:59:50;;;;;;;6.88;6.28;;;11.40;69.60;;;;;;5066461;28;20332;-75
2023/11/05 03:02:17;;;;;;;6.32;5.72;;;11.40;69.60;;;;;;5058122;28;20027;-75
2023/11/05 03:04:43;;;;;;;6.05;5.55;;;11.40;69.60;;;;;;5041002;28;20036;-76
2023/11/05 03:07:12;;;;;;;6.65;6.05;;;11.40;69.60;;;;;;5059613;28;20547;-76
2023/11/05 03:09:38;;;;;;;5.45;4.95;;;11.40;69.60;;;;;;5059078;28;20116;-76
2023/11/05 03:12:05;;;;;;;5.47;4.97;;;11.40;69.70;;;;;;5060304;28;20328;-76
2023/11/05 03:14:31;;;;;;;5.28;4.78;;;11.50;70.20;;;;;;5059152;28;20044;-76
2023/11/05 03:16:57;;;;;;;5.70;5.20;;;11.40;69.70;;;;;;5061010;28;20025;-76
2023/11/05 03:19:23;;;;;;;6.15;5.63;;;11.40;69.70;;;;;;5059823;28;20055;-75
2023/11/05 03:21:49;;;;;;;4.65;4.25;;;11.40;69.70;;;;;;5039549;28;20033;-75
2023/11/05 03:24:15;;;;;;;5.00;4.57;;;11.50;69.90;;;;;;5060749;28;20426;-75
2023/11/05 03:26:41;;;;;;;5.03;4.53;;;11.40;69.70;;;;;;5059094;28;20433;-75
2023/11/05 03:29:07;;;;;;;5.10;4.60;;;11.40;69.70;;;;;;5058498;28;20025;-76
2023/11/05 03:31:33;;;;;;;4.95;4.55;;;11.50;69.90;;;;;;5074907;28;20043;-76
2023/11/05 03:34:00;;;;;;;5.15;4.65;;;11.50;69.90;;;;;;5064198;28;20446;-76
2023/11/05 03:36:28;;;;;;;4.82;4.43;;;11.50;69.90;;;;;;5046625;28;20046;-75
2023/11/05 03:38:54;;;;;;;5.22;4.78;;;11.50;69.80;;;;;;5059770;28;20453;-75
2023/11/05 03:41:20;;;;;;;4.20;3.90;;;11.50;69.90;;;;;;5057367;28;20429;-74
2023/11/05 03:43:47;;;;;;;4.47;4.10;;;11.50;69.80;;;;;;5058410;28;20707;-75
2023/11/05 03:46:14;;;;;;;3.92;3.55;;;11.40;69.60;;;;;;5063090;28;20062;-76
2023/11/05 03:48:43;;;;;;;4.10;3.80;;;11.50;69.80;;;;;;5064572;28;20028;-76
2023/11/05 03:51:13;;;;;;;3.78;3.40;;;11.50;69.90;;;;;;5061723;28;20027;-75
2023/11/05 03:53:40;;;;;;;3.78;3.47;;;11.50;70.30;;;;;;5061982;28;20090;-75
2023/11/05 03:56:08;;;;;;;3.20;3.00;;;11.50;69.80;;;;;;5057346;28;20259;-75
2023/11/05 03:58:37;;;;;;;3.03;2.80;;;11.50;69.80;;;;;;5064053;28;20486;-76
2023/11/05 04:01:04;;;;;;;3.45;3.15;;;11.40;69.60;;;;;;5057891;28;20032;-76
2023/11/05 04:03:34;;;;;;;2.80;2.50;;;11.40;69.60;;;;;;5064764;28;20090;-76
2023/11/05 04:06:00;;;;;;;2.90;2.70;;;11.40;69.60;;;;;;5064076;28;20033;-76
2023/11/05 04:08:26;;;;;;;2.80;2.60;;;11.40;69.60;;;;;;5060344;28;20033;-76
2023/11/05 04:10:52;;;;;;;2.55;2.35;;;11.50;69.80;;;;;;5061482;28;20215;-76
2023/11/05 04:13:18;;;;;;;2.58;2.30;;;11.50;69.80;;;;;;5063908;28;20064;-74
2023/11/05 04:15:44;;;;;;;2.10;1.90;;;11.40;69.70;;;;;;5058606;28;20453;-74
2023/11/05 04:18:10;;;;;;;2.97;2.20;;;11.40;69.60;;;;;;5063342;28;20026;-74
2023/11/05 04:20:36;;;;;;;1.60;1.48;;;11.40;69.60;;;;;;5061800;28;20270;-75
2023/11/05 04:23:02;;;;;;;1.60;1.50;;;11.50;69.80;;;;;;5062516;28;20511;-74
2023/11/05 04:25:28;;;;;;;2.00;1.80;;;11.40;69.60;;;;;;5062701;28;20117;-75
2023/11/05 04:27:54;;;;;;;1.52;1.33;;;11.40;69.60;;;;;;5064849;28;20500;-76
2023/11/05 04:30:20;;;;;;;1.95;1.73;;;11.40;69.60;;;;;;5056601;28;20079;-75
2023/11/05 04:32:46;;;;;;;1.70;1.60;;;11.40;69.50;;;;;;5057704;28;20070;-75
2023/11/05 04:35:12;;;;;;;1.58;1.27;;;11.40;69.50;;;;;;5063642;28;20074;-75
2023/11/05 04:37:38;;;;;;;1.50;1.25;;;11.40;69.50;;;;;;5059011;28;20533;-76
2023/11/05 04:40:06;;;;;;;2.03;1.15;;;11.40;69.40;;;;;;5062034;28;20045;-76
2023/11/05 04:42:32;;;;;;;1.38;1.00;;;11.40;69.40;;;;;;5055197;28;20166;-76
2023/11/05 04:44:58;;;;;;;3.00;1.00;;;11.30;69.20;;;;;;5063208;28;20025;-76
2023/11/05 04:47:25;;;;;;;1.27;1.10;;;11.30;69.20;;;;;;5043171;28;20017;-76
2023/11/05 04:49:51;;;;;;;1.27;1.00;;;11.40;69.40;;;;;;5062407;28;20029;-76
2023/11/05 04:52:17;;;;;;;0.90;0.80;;;11.30;69.20;;;;;;5058254;28;20033;-76
2023/11/05 04:54:43;;;;;;;1.42;0.85;;;11.30;69.20;;;;;;5061415;28;20115;-76
2023/11/05 04:57:10;;;;;;;1.45;1.27;;;11.30;69.20;;;;;;5062156;28;20039;-76
2023/11/05 04:59:39;;;;;;;0.90;0.90;;;11.30;69.20;;;;;;5059255;28;20400;-75
2023/11/05 05:02:05;;;;;;;0.88;0.70;;;11.30;69.20;;;;;;5061182;28;20024;-75
2023/11/05 05:04:31;;;;;;;1.15;0.85;;;11.30;69.20;;;;;;5060522;28;20033;-76
2023/11/05 05:06:57;;;;;;;1.02;0.70;;;11.20;69.10;;;;;;5062846;28;20031;-76
2023/11/05 05:09:23;;;;;;;0.65;0.57;;;11.30;69.20;;;;;;5060661;28;20036;-76
2023/11/05 05:11:50;;;;;;;0.88;0.73;;;11.20;69.00;;;;;;5067716;28;20465;-75
2023/11/05 05:14:15;;;;;;;0.60;0.60;;;11.20;69.00;;;;;;5059765;28;20052;-76
2023/11/05 05:16:41;;;;;;;2.25;0.90;;;11.20;69.00;;;;;;5061511;28;20083;-75
2023/11/05 05:19:07;;;;;;;1.25;0.60;;;11.20;69.00;;;;;;5060019;28;20468;-75
2023/11/05 05:21:33;;;;;;;0.50;0.50;;;11.20;69.00;;;;;;5058876;28;20040;-76
2023/11/05 05:23:59;;;;;;;1.17;0.82;;;11.10;68.80;;;;;;5061186;28;20040;-75
2023/11/05 05:26:25;;;;;;;0.77;0.70;;;11.10;68.80;;;;;;5060575;28;20127;-75
2023/11/05 05:28:51;;;;;;;3.35;0.85;;;11.10;68.80;;;;;;5062718;28;20119;-75
2023/11/05 05:31:17;;;;;;;1.27;0.45;;;11.10;68.80;;;;;;5072462;28;20490;-75
2023/11/05 05:33:44;;;;;;;2.60;0.98;;;11.10;68.80;;;;;;5062944;28;20012;-75
2023/11/05 05:36:11;;;;;;;0.75;0.63;;;11.10;68.80;;;;;;5044577;28;20571;-75
2023/11/05 05:38:37;;;;;;;0.88;0.60;;;11.00;68.70;;;;;;5043232;28;20067;-75
2023/11/05 05:41:04;;;;;;;0.60;0.43;;;11.00;68.70;;;;;;5059699;28;20029;-75
2023/11/05 05:43:30;;;;;;;0.93;0.60;;;11.00;68.70;;;;;;5059402;28;20032;-76
2023/11/05 05:45:56;;;;;;;0.77;0.77;;;10.90;68.50;;;;;;5059934;28;20033;-76
2023/11/05 05:48:22;;;;;;;1.75;0.98;;;10.90;68.50;;;;;;5057666;28;20043;-76
2023/11/05 05:50:47;;;;;;;1.60;0.75;;;10.90;68.60;;;;;;5067505;28;20032;-75
2023/11/05 05:53:14;;;;;;;1.58;0.52;;;10.80;68.40;;;;;;5069137;28;20035;-75
2023/11/05 05:55:40;;;;;;;1.08;0.82;;;10.80;68.50;;;;;;5063457;28;20032;-75
2023/11/05 05:58:06;;;;;;;1.40;0.70;;;10.80;68.50;;;;;;5060215;28;20029;-76
2023/11/05 06:00:32;;;;;;;1.73;1.42;;;10.80;68.50;;;;;;5064866;28;20514;-76
2023/11/05 06:02:58;;;;;;;0.85;0.70;;;10.70;68.40;;;;;;5045443;28;20029;-75
2023/11/05 06:05:24;;;;;;;2.10;1.38;;;10.70;68.40;;;;;;5069116;28;20043;-75
2023/11/05 06:07:51;;;;;;;2.03;0.85;;;10.70;68.40;;;;;;5059154;28;20040;-75
2023/11/05 06:10:17;;;;;;;0.80;0.60;;;10.70;68.50;;;;;;5057936;28;20032;-75
2023/11/05 06:12:43;;;;;;;1.25;0.88;;;10.70;68.50;;;;;;5061232;28;20052;-75
2023/11/05 06:15:09;;;;;;;1.35;0.95;;;10.70;68.50;;;;;;5063263;28;20463;-76
2023/11/05 06:17:35;;;;;;;1.20;0.75;;;10.60;68.40;;;;;;5062171;28;20082;-76
2023/11/05 06:20:05;;;;;;;1.05;0.73;;;10.60;68.40;;;;;;5060225;28;20120;-76
2023/11/05 06:22:32;;;;;;;3.20;0.77;;;10.60;68.40;;;;;;5058620;28;20033;-75
2023/11/05 06:24:59;;;;;;;0.95;0.90;;;10.60;68.50;;;;;;5061611;28;20032;-75
2023/11/05 06:27:25;;;;;;;1.40;0.75;;;10.50;68.30;;;;;;5061732;28;20043;-75
2023/11/05 06:29:55;;;;;;;1.52;0.80;;;10.50;68.30;;;;;;5063365;28;20029;-76
2023/11/05 06:32:22;;;;;;;3.63;1.00;;;10.50;68.40;;;;;;5065878;28;20052;-77
2023/11/05 06:34:48;;;;;;;1.30;0.90;;;10.50;68.40;;;;;;5063736;28;20059;-76
2023/11/05 06:37:14;;;;;;;2.08;0.90;;;10.50;68.50;;;;;;5060875;28;20036;-76
2023/11/05 06:39:40;;;;;;;2.83;1.38;;;10.40;68.40;;;;;;5057455;28;20064;-76
2023/11/05 06:42:06;;;;;;;1.15;1.00;;;10.40;68.50;;;;;;5058707;28;20476;-77
2023/11/05 06:44:33;;;;;;;2.20;1.27;;;10.40;68.50;;;;;;5060571;28;20024;-77
2023/11/05 06:46:59;;;;;;;1.40;0.88;;;10.40;68.50;;;;;;5064287;28;20032;-73
2023/11/05 06:49:25;;;;;;;1.48;1.02;;;10.40;68.50;;;;;;5059374;28;20036;-74
2023/11/05 06:51:51;;;;;;;2.38;1.02;;;10.40;68.60;;;;;;5061110;28;20519;-74
2023/11/05 06:54:17;;;;;;;1.88;1.08;;;10.40;68.60;;;;;;5062128;28;20396;-74
2023/11/05 06:56:42;;;;;;;3.28;1.35;;;10.40;68.60;;;;;;5058000;28;20059;-74
2023/11/05 06:59:09;;;;;;;1.42;0.80;;;10.40;68.70;;;;;;5065255;28;20468;-74
2023/11/05 07:01:35;;;;;;;2.65;1.10;;;10.40;68.70;;;;;;5062429;28;20081;-74
2023/11/05 07:04:01;;;;;;;1.25;1.08;;;10.40;68.70;;;;;;5064780;28;20032;-75
2023/11/05 07:06:27;;;;;;;2.17;0.95;;;10.40;68.70;;;;;;5059222;28;20033;-75
2023/11/05 07:08:53;;;;;;;1.63;1.05;;;10.30;68.60;;;;;;5065384;28;20072;-75
2023/11/05 07:11:20;;;;;;;4.45;1.33;;;10.40;68.80;;;;;;5065806;28;20043;-75
2023/11/05 07:13:46;;;;;;;2.50;1.13;;;10.40;68.80;;;;;;5062693;28;20111;-74
2023/11/05 07:16:12;;;;;;;3.47;1.20;;;10.40;68.80;;;;;;5060892;28;20039;-75
2023/11/05 07:18:39;;;;;;;1.95;0.82;;;10.40;68.90;;;;;;5092114;28;20032;-75
2023/11/05 07:21:05;;;;;;;1.50;0.90;;;10.40;68.90;;;;;;5066602;28;20285;-76
2023/11/05 07:23:31;;;;;;;2.38;1.17;;;10.40;68.90;;;;;;5061170;28;20250;-75
2023/11/05 07:25:56;;;;;;;1.55;0.98;;;10.40;68.90;;;;;;5061396;28;20569;-75
2023/11/05 07:28:22;;;;;;;4.90;1.30;;;10.50;69.60;;;;;;5067259;28;20044;-75
2023/11/05 07:30:48;;;;;;;2.40;0.95;;;10.40;68.90;;;;;;5061074;28;20111;-75
2023/11/05 07:33:14;;;;;;;1.42;0.85;;;10.50;69.10;;;;;;5061634;28;20064;-74
2023/11/05 07:35:40;;;;;;;3.30;1.17;;;10.50;69.10;;;;;;5067040;28;20485;-75
2023/11/05 07:38:08;;;;;;;2.42;1.15;;;10.50;69.10;;;;;;5063025;28;20048;-75
2023/11/05 07:40:35;;;;;;;2.45;1.08;;;10.50;69.10;;;;;;5062821;28;20434;-76
2023/11/05 07:43:01;;;;;;;4.65;1.27;;;10.50;69.10;;;;;;5074605;28;20048;-76
2023/11/05 07:45:27;;;;;;;2.75;1.30;;;10.50;69.10;;;;;;5066662;28;20040;-74
2023/11/05 07:47:54;;;;;;;2.28;1.10;;;10.50;69.10;;;;;;5063215;28;20031;-78
2023/11/05 07:50:22;;;;;;;4.68;1.52;;;10.50;69.20;;;;;;5066195;28;20035;-78
2023/11/05 07:52:48;;;;;;;4.55;1.40;;;10.50;69.60;;;;;;5047518;28;20047;-78
2023/11/05 07:55:14;;;;;;;4.65;1.40;;;10.60;70.10;;;;;;5062185;28;20519;-78
2023/11/05 07:57:45;;;;;;;4.18;2.00;;;10.70;70.50;;;;;;5058662;28;20198;-78
2023/11/05 08:00:18;;;;;;;1.63;0.93;;;10.80;70.80;;;;;;5055042;28;20103;-78
2023/11/05 08:02:47;;;;;;;1.65;1.15;;;10.80;70.90;;;;;;5058445;28;20035;-78
2023/11/05 08:05:14;;;;;;;5.93;1.13;;;10.80;71.50;;;;;;5061206;28;20036;-78
2023/11/05 08:07:41;;;;;;;2.95;1.10;;;10.90;71.20;;;;;;5043775;28;20082;-78
2023/11/05 08:10:08;;;;;;;1.75;1.10;;;10.90;71.30;;;;;;5055166;28;20103;-78
2023/11/05 08:12:35;;;;;;;4.50;1.10;;;11.00;71.60;;;;;;5061302;28;20085;-78
2023/11/05 08:15:02;;;;;;;2.22;1.20;;;11.10;72.00;;;;;;5058359;28;20064;-79
2023/11/05 08:17:28;;;;;;;2.42;1.20;;;11.10;72.20;;;;;;5059162;28;20032;-78
2023/11/05 08:19:55;;;;;;;4.65;1.25;;;11.20;72.40;;;;;;5055568;28;20028;-78
2023/11/05 08:22:21;;;;;;;4.22;1.83;;;11.20;72.30;;;;;;5057941;28;20078;-78
2023/11/05 08:24:49;;;;;;;2.67;1.52;;;11.20;72.30;;;;;;5059170;28;20514;-78
2023/11/05 08:27:15;;;;;;;3.22;1.60;;;11.20;72.30;;;;;;5060474;28;20028;-78
2023/11/05 08:29:43;;;;;;;4.53;1.55;;;11.20;72.20;;;;;;5057736;28;20365;-78
2023/11/05 08:32:09;;;;;;;5.15;2.15;;;11.20;72.20;;;;;;5063535;28;20357;-77
2023/11/05 08:34:35;;;;;;;3.70;1.73;;;11.10;72.00;;;;;;5066944;28;20123;-78
2023/11/05 08:37:07;;;;;;;2.53;1.75;;;11.20;72.10;;;;;;5065071;28;20024;-78
2023/11/05 08:39:35;;;;;;;4.63;2.20;;;11.20;72.10;;;;;;5056013;28;20313;-78
2023/11/05 08:42:02;;;;;;;4.03;2.05;;;11.20;72.10;;;;;;5056780;28;20863;-78
2023/11/05 08:44:29;;;;;;;3.22;1.83;;;11.10;71.90;;;;;;5066423;28;20388;-78
2023/11/05 08:46:55;;;;;;;6.32;1.90;;;11.10;71.80;;;;;;5065255;28;20044;-77
2023/11/05 08:49:24;;;;;;;3.40;1.92;;;11.10;71.80;;;;;;5062504;28;20059;-78
2023/11/05 08:51:52;;;;;;;2.90;1.60;;;11.10;71.80;;;;;;5062246;28;20589;-78
2023/11/05 08:54:20;;;;;;;6.45;1.80;;;11.10;71.70;;;;;;5062440;28;20020;-78
2023/11/05 08:56:46;;;;;;;4.57;2.55;;;11.10;71.70;;;;;;5056929;28;20466;-78
2023/11/05 08:59:12;;;;;;;2.95;1.77;;;11.10;71.70;;;;;;5058401;28;20028;-77
2023/11/05 09:01:38;;;;;;;3.55;1.75;;;11.10;71.70;;;;;;5059376;28;20526;-79
2023/11/05 09:04:05;;;;;;;3.70;1.60;;;11.10;71.60;;;;;;5061986;28;20484;-78
2023/11/05 09:06:31;;;;;;;4.90;1.85;;;11.10;71.60;;;;;;5060414;28;20048;-77
2023/11/05 09:08:58;;;;;;;2.85;1.73;;;11.10;71.60;;;;;;5043477;28;20039;-78
2023/11/05 09:11:25;;;;;;;4.63;1.77;;;11.20;71.70;;;;;;5038089;28;20049;-78
2023/11/05 09:13:51;;;;;;;3.88;2.33;;;11.20;71.70;;;;;;5061734;28;20024;-78
2023/11/05 09:16:17;;;;;;;3.08;1.55;;;11.20;71.60;;;;;;5048985;28;20048;-78
2023/11/05 09:18:44;;;;;;;4.50;1.77;;;11.20;71.60;;;;;;5060127;28;20059;-78
2023/11/05 09:21:10;;;;;;;3.80;1.65;;;11.20;71.50;;;;;;5060366;28;21075;-78
2023/11/05 09:23:37;;;;;;;2.58;1.55;;;11.30;71.70;;;;;;5061751;28;20036;-79
2023/11/05 09:26:03;;;;;;;5.45;1.83;;;11.30;71.60;;;;;;5058635;28;20040;-79
2023/11/05 09:28:30;;;;;;;4.63;2.10;;;11.30;71.60;;;;;;5056875;28;20047;-80
2023/11/05 09:30:57;;;;;;;4.97;1.50;;;11.40;71.80;;;;;;5057612;28;20032;-80
2023/11/05 09:33:23;;;;;;;1.98;1.33;;;11.40;72.10;;;;;;5059695;28;20117;-80
2023/11/05 09:35:49;;;;;;;5.95;1.38;;;11.50;72.40;;;;;;5060718;28;20036;-80
2023/11/05 09:38:16;;;;;;;3.63;1.50;;;11.60;72.50;;;;;;5055955;28;20028;-80
2023/11/05 09:40:47;;;;;;;2.95;1.20;;;11.70;72.60;;;;;;5049648;28;20097;-80
2023/11/05 09:43:14;;;;;;;3.88;2.40;;;11.80;72.60;;;;;;5057552;28;20059;-79
2023/11/05 09:45:42;;;;;;;5.35;1.55;;;11.80;72.50;;;;;;5056652;28;20075;-78
2023/11/05 09:48:11;;;;;;;1.88;1.38;;;11.80;72.30;;;;;;5060156;28;20028;-79
2023/11/05 09:50:40;;;;;;;3.63;1.50;;;11.90;72.40;;;;;;5058544;28;20578;-79
2023/11/05 09:53:10;;;;;;;3.28;1.35;;;11.90;72.30;;;;;;5062042;28;20501;-81
2023/11/05 09:55:41;;;;;;;8.02;1.77;;;12.00;72.30;;;;;;5056875;28;20058;-77
2023/11/05 09:58:08;;;;;;;5.13;1.80;;;12.00;72.30;;;;;;5054115;28;20040;-77
2023/11/05 10:00:35;;;;;;;2.63;1.65;;;12.00;72.20;;;;;;5051067;28;20071;-77
2023/11/05 10:03:09;;;;;;;5.95;1.95;;;12.10;72.30;;;;;;5061389;28;20046;-79
2023/11/05 10:05:42;;;;;;;6.13;2.05;;;12.10;72.30;;;;;;5057394;28;20451;-78
2023/11/05 10:08:10;;;;;;;5.57;2.30;;;12.10;72.10;;;;;;5057003;28;20043;-80
2023/11/05 10:10:43;;;;;;;6.43;2.28;;;12.30;72.40;;;;;;5055414;28;20077;-79
2023/11/05 10:13:11;;;;;;;4.93;1.92;;;12.30;72.20;;;;;;5052483;28;20036;-79
2023/11/05 10:15:41;;;;;;;7.50;2.47;;;12.40;72.20;;;;;;5054193;28;20048;-77
2023/11/05 10:18:26;;;;;;;4.35;1.85;;;12.60;72.40;;;;;;5058956;28;20029;-78
2023/11/05 10:20:58;;;;;;;4.45;1.98;;;12.60;72.20;;;;;;5059155;28;20032;-79
2023/11/05 10:23:26;;;;;;;4.20;1.63;;;12.70;72.20;;;;;;5054806;28;20025;-77
2023/11/05 10:25:54;;;;;;;6.70;2.28;;;12.70;72.00;;;;;;5056927;28;20021;-77
2023/11/05 10:28:21;;;;;;;5.80;2.65;;;12.80;72.00;;;;;;5055335;28;20107;-80
2023/11/05 10:30:54;;;;;;;5.85;2.05;;;12.80;72.00;;;;;;5056688;28;20563;-78
2023/11/05 10:33:20;;;;;;;6.68;2.10;;;12.90;72.00;;;;;;5055555;28;20024;-76
2023/11/05 10:35:48;;;;;;;6.38;2.17;;;12.90;72.00;;;;;;5058469;28;20050;-77
2023/11/05 10:38:18;;;;;;;4.32;2.17;;;12.90;71.90;;;;;;5059906;28;20400;-80
2023/11/05 10:40:46;;;;;;;6.88;2.05;;;12.90;71.90;;;;;;5050383;28;20044;-79
2023/11/05 10:43:14;;;;;;;5.70;2.55;;;12.90;71.80;;;;;;5063719;28;20028;-77
2023/11/05 10:45:42;;;;;;;9.35;3.90;;;12.90;71.80;;;;;;5062377;28;20051;-77
2023/11/05 10:48:09;;;;;;;11.45;3.63;;;12.90;71.90;;;;;;5060531;28;20033;-78
2023/11/05 10:50:42;;;;;;;6.50;2.05;;;13.00;72.50;;;;;;5061013;28;20036;-77
2023/11/05 10:53:09;;;;;;;5.80;1.52;;;13.10;72.80;;;;;;5062263;28;20388;-77
2023/11/05 10:55:37;;;;;;;9.23;2.30;;;13.10;72.60;;;;;;5062803;28;20056;-77
2023/11/05 10:58:08;;;;;;;8.10;2.85;;;13.20;72.60;;;;;;5063763;28;20103;-79
2023/11/05 11:00:34;;;;;;;7.28;2.60;;;13.20;72.50;;;;;;5055163;28;20094;-79
2023/11/05 11:03:02;;;;;;;6.28;2.00;;;13.30;72.80;;;;;;5045040;28;20576;-80
2023/11/05 11:05:53;;;;;;;4.10;1.73;;;13.30;72.80;;;;;;5057046;28;20104;-80
2023/11/05 11:08:26;;;;;;;6.28;2.13;;;13.40;72.90;;;;;;5071065;28;20040;-79
2023/11/05 11:11:07;;;;;;;5.47;1.95;;;13.40;72.80;;;;;;5063338;28;20043;-79
2023/11/05 11:13:34;;;;;;;7.03;1.60;;;13.40;72.60;;;;;;5061405;28;20043;-80
2023/11/05 11:16:03;;;;;;;5.60;2.50;;;13.50;72.70;;;;;;5067080;28;20044;-80
2023/11/05 11:18:33;;;;;;;6.13;1.55;;;13.50;72.60;;;;;;5061296;28;20575;-81
2023/11/05 11:21:02;;;;;;;6.20;1.80;;;13.50;72.50;;;;;;5066898;28;20178;-80
2023/11/05 11:23:30;;;;;;;3.97;1.58;;;13.60;72.50;;;;;;5059631;28;20036;-81
2023/11/05 11:25:59;;;;;;;4.82;1.52;;;13.50;72.20;;;;;;5040426;28;20061;-79
2023/11/05 11:28:31;;;;;;;7.60;1.83;;;13.60;72.30;;;;;;5062039;28;20044;-84
2023/11/05 11:30:58;;;;;;;6.10;1.58;;;13.60;72.10;;;;;;5059805;28;20039;-81
2023/11/05 11:33:27;;;;;;;2.42;1.38;;;13.60;72.00;;;;;;5049770;28;20285;-79
2023/11/05 11:35:54;;;;;;;5.85;1.30;;;13.70;72.00;;;;;;5063530;28;20556;-81
2023/11/05 11:38:20;;;;;;;3.38;1.30;;;13.70;71.90;;;;;;5064012;28;20032;-80
2023/11/05 11:40:59;;;;;;;5.77;1.80;;;13.70;71.70;;;;;;5060455;28;20480;-81
2023/11/05 11:43:29;;;;;;;;;;;13.80;71.80;;;;;;5060475;28;20281;-80
2023/11/05 11:45:58;;;;;;;5.18;1.83;;;13.80;71.70;;;;;;5057146;28;19923;-80
2023/11/05 11:48:25;;;;;;;5.05;1.38;;;13.80;71.70;;;;;;5061706;28;20035;-80
2023/11/05 11:51:00;;;;;;;2.55;1.00;;;13.80;71.60;;;;;;5061517;28;20115;-80
2023/11/05 11:53:40;;;;;;;3.20;1.50;;;13.90;71.60;;;;;;5059316;28;20267;-80
2023/11/05 11:56:07;;;;;;;3.72;1.55;;;13.80;71.40;;;;;;5059953;28;20036;-79
2023/11/05 11:58:40;;;;;;;2.70;1.27;;;13.90;71.50;;;;;;5059069;28;20028;-80
2023/11/05 12:01:13;;;;;;;7.15;1.45;;;13.90;71.30;;;;;;5053810;28;20040;-80
2023/11/05 12:03:40;;;;;;;5.47;1.30;;;13.90;71.30;;;;;;5057651;28;20029;-82
2023/11/05 12:06:07;;;;;;;4.97;1.80;;;13.90;71.20;;;;;;5063167;28;20103;-87
2023/11/05 12:08:39;;;;;;;7.45;1.88;;;13.90;71.10;;;;;;5057926;28;20041;-85
2023/11/05 12:11:22;;;;;;;5.03;1.42;;;14.00;71.30;;;;;;5059761;28;20028;-86
2023/11/05 12:13:51;;;;;;;6.90;1.40;;;14.00;71.50;;;;;;5060622;28;20024;-85
2023/11/05 12:16:18;;;;;;;5.05;1.42;;;14.00;72.10;;;;;;5042736;28;20046;-87
2023/11/05 12:18:46;;;;;;;8.25;1.98;;;14.10;71.80;;;;;;5060172;28;20037;-85
2023/11/05 12:21:13;;;;;;;6.68;2.15;;;14.10;71.80;;;;;;5059111;28;20031;-90
2023/11/05 12:23:46;;;;;;;8.43;1.92;;;14.10;71.80;;;;;;5060182;28;20032;-84
2023/11/05 12:26:16;;;;;;;7.80;1.70;;;14.20;72.00;;;;;;5057979;28;20032;-85
2023/11/05 12:28:44;;;;;;;5.55;2.00;;;14.20;72.10;;;;;;5055391;28;20429;-84
2023/11/05 12:31:10;;;;;;;5.75;2.38;;;14.20;72.10;;;;;;5058388;28;20416;-85
2023/11/05 12:33:40;;;;;;;5.00;2.22;;;14.30;72.20;;;;;;5039502;28;20045;-84
2023/11/05 12:36:07;;;;;;;6.85;2.70;;;14.30;72.20;;;;;;5061294;28;20110;-83
2023/11/05 12:38:34;;;;;;;6.85;2.53;;;14.40;72.40;;;;;;5054195;28;20834;-84
2023/11/05 12:41:01;;;;;;;5.38;1.90;;;14.50;72.40;;;;;;5053710;28;20029;-84
2023/11/05 12:43:27;;;;;;;6.80;2.13;;;14.50;72.40;;;;;;5059505;28;20036;-84
2023/11/05 12:45:55;;;;;;;6.80;2.55;;;14.60;72.50;;;;;;5058946;28;20028;-84